首页
METAR-TAF:

METAR-TAF

机场 :

吉隆坡国际机场

吉隆坡, 马来西亚

纬度: 02-44N, 经度: 101-42E, 海拔: 21米

当前天气观测

该预报发布于35分钟前的14:00 UTC
风速5节,风向东转东北,在北转东北之间变化
温度 25°C
湿度 94%
气压 1013 hPa
能見度: 9000
少量云层高于3000英尺
散云层高于14000英尺
多云层高于28000英尺

METAR: WMKK 231400Z 06005KT 030V100 9000 FEW030 SCT140 BKN280 25/24 Q1013 NOSIG

时间: 22:35 (14:35 UTC)

预报

该预报发布于3小时和35分钟前的11:00 UTC
预报有效从23日的 12点(UTC)到 24日的 18点(UTC)
风速5节,风向西转西北,有时为15节阵风
能見度: 4000
少量云层高于1000英尺
少量云层高于1700英尺, 积雨云.
雷暴, 雨
成为
从 23日的 14点(UTC)到 23日的 15点(UTC)
风速3节,风向多变
能見度: 9000
少量云层高于1700英尺, 积雨云.
成为
从 23日的 20点(UTC)到 23日的 22点(UTC)
少量云层高于2000英尺
短暂存在
从 24日的 06点(UTC)到 24日的 12点(UTC)
风速8节,风向西转西南
能見度: 4000
少量云层高于1700英尺, 积雨云.
雷暴, 雨

TAF: WMKK 231100Z 2312/2418 30005G15KT 4000 TSRA FEW010 FEW017CB BECMG 2314/2315 VRB03KT 9000 NSW FEW017CB BECMG 2320/2322 FEW020 TEMPO 2406/2412 25008KT 4000 TSRA FEW017CB

超过4000个机场的气象观测和天气预报(METAR&TAF报告)。

可查询的气象台以黄色和红色小点在地图上表示。

将鼠标移到小点上方,可查看气象台名称。

然后点击查看天气观测和预报。

如需切换地图:点击带黑十字的绿色按钮放大地图;点击带横线的绿色按钮缩小地图;或者点击绿色箭头查看邻近地区的地图。


METAR-TAF: